createdAt,value
2022-08-17T00:01:52.136Z,99.90
2022-08-17T00:04:20.744Z,99.90
2022-08-17T00:06:49.478Z,99.90
2022-08-17T00:09:18.966Z,99.90
2022-08-17T00:12:35.096Z,99.90
2022-08-17T00:14:35.376Z,99.90
2022-08-17T00:17:04.141Z,99.90
2022-08-17T00:19:33.124Z,99.90
2022-08-17T00:22:32.748Z,99.90
2022-08-17T00:24:50.915Z,99.90
2022-08-17T00:27:18.966Z,99.90
2022-08-17T00:29:46.210Z,99.90
2022-08-17T00:33:15.854Z,99.90
2022-08-17T00:35:06.322Z,99.90
2022-08-17T00:37:33.922Z,99.90
2022-08-17T00:40:01.350Z,99.90
2022-08-17T00:42:31.103Z,99.90
2022-08-17T00:44:59.556Z,99.90
2022-08-17T00:47:26.821Z,99.90
2022-08-17T00:49:54.496Z,99.90
2022-08-17T00:52:23.401Z,99.90
2022-08-17T00:54:52.705Z,99.90
2022-08-17T00:57:31.379Z,99.90
2022-08-17T01:00:02.575Z,99.90
2022-08-17T01:02:40.400Z,99.90
2022-08-17T01:05:20.788Z,99.90
2022-08-17T01:07:48.671Z,99.90
2022-08-17T01:10:59.824Z,99.90
2022-08-17T01:13:03.797Z,99.90
2022-08-17T01:15:31.775Z,99.90
2022-08-17T01:17:59.253Z,99.90
2022-08-17T01:20:27.110Z,99.90
2022-08-17T01:22:54.647Z,99.90
2022-08-17T01:25:22.009Z,99.90
2022-08-17T01:27:49.268Z,99.90
2022-08-17T01:30:58.042Z,99.90
2022-08-17T01:33:04.626Z,99.90
2022-08-17T01:35:32.168Z,99.90
2022-08-17T01:37:59.293Z,99.90
2022-08-17T01:40:36.035Z,99.90
2022-08-17T01:43:11.690Z,99.90
2022-08-17T01:45:44.698Z,99.90
2022-08-17T01:48:12.486Z,99.90
2022-08-17T01:50:41.203Z,99.90
2022-08-17T01:53:11.732Z,99.90
2022-08-17T01:55:41.675Z,99.90
2022-08-17T01:58:09.992Z,99.90
2022-08-17T02:01:01.043Z,99.90
2022-08-17T02:03:26.137Z,99.90
2022-08-17T02:05:53.497Z,99.90
2022-08-17T02:08:21.290Z,99.90
2022-08-17T02:11:11.304Z,99.90
2022-08-17T02:13:39.008Z,99.90
2022-08-17T02:16:06.421Z,99.90
2022-08-17T02:18:33.707Z,99.90
2022-08-17T02:21:00.988Z,99.90
2022-08-17T02:23:29.266Z,99.90
2022-08-17T02:25:56.625Z,99.90
2022-08-17T02:28:23.968Z,99.90
2022-08-17T02:31:01.411Z,99.90
2022-08-17T02:33:42.644Z,99.90
2022-08-17T02:36:12.724Z,99.90
2022-08-17T02:38:40.474Z,99.90
2022-08-17T02:41:07.774Z,99.90
2022-08-17T02:43:35.068Z,99.90
2022-08-17T02:46:02.228Z,99.90
2022-08-17T02:48:31.386Z,99.90
2022-08-17T02:51:00.159Z,99.90
2022-08-17T02:53:35.623Z,99.90
2022-08-17T02:56:03.898Z,99.90
2022-08-17T02:58:35.131Z,99.90
2022-08-17T03:01:07.039Z,99.90
2022-08-17T03:03:34.483Z,99.90
2022-08-17T03:06:01.811Z,99.90
2022-08-17T03:08:29.304Z,99.90
2022-08-17T03:10:56.790Z,99.90
2022-08-17T03:13:24.350Z,99.90
2022-08-17T03:15:52.079Z,99.90
2022-08-17T03:18:25.327Z,99.90
2022-08-17T03:20:58.001Z,99.90
2022-08-17T03:23:25.756Z,99.90
2022-08-17T03:25:53.875Z,99.90
2022-08-17T03:28:22.119Z,99.90
2022-08-17T03:30:51.546Z,99.90
2022-08-17T03:33:19.248Z,99.90
2022-08-17T03:35:46.715Z,99.90
2022-08-17T03:38:15.035Z,99.90
2022-08-17T03:40:56.705Z,99.90
2022-08-17T03:43:30.243Z,99.90
2022-08-17T03:46:28.486Z,99.90
2022-08-17T03:49:19.951Z,99.90
2022-08-17T03:52:06.437Z,99.90
2022-08-17T03:54:52.350Z,99.90
2022-08-17T03:57:19.975Z,99.90
2022-08-17T03:59:47.731Z,99.90
2022-08-17T04:02:42.071Z,99.90
2022-08-17T04:05:10.027Z,99.90
2022-08-17T04:07:37.352Z,99.90
2022-08-17T04:10:05.033Z,99.90
2022-08-17T04:12:46.408Z,99.90
2022-08-17T04:15:14.049Z,99.90
2022-08-17T04:17:41.481Z,99.90
2022-08-17T04:20:09.743Z,99.90
2022-08-17T04:22:37.265Z,99.90
2022-08-17T04:25:09.557Z,99.90
2022-08-17T04:27:36.942Z,99.90
2022-08-17T04:30:07.369Z,99.90
2022-08-17T04:33:04.058Z,99.90
2022-08-17T04:35:45.055Z,99.90
2022-08-17T04:38:17.869Z,99.90
2022-08-17T04:41:03.989Z,99.90
2022-08-17T04:43:32.656Z,99.90
2022-08-17T04:46:02.543Z,99.90
2022-08-17T04:48:36.532Z,99.90
2022-08-17T04:51:10.303Z,99.90
2022-08-17T04:53:39.422Z,99.90
2022-08-17T04:56:07.260Z,99.90
2022-08-17T04:58:34.625Z,99.90
2022-08-17T05:01:02.067Z,99.90
2022-08-17T05:03:29.930Z,99.90
2022-08-17T05:05:57.586Z,99.90
2022-08-17T05:08:25.228Z,99.90
2022-08-17T05:10:52.762Z,99.90
2022-08-17T05:13:22.512Z,99.90
2022-08-17T05:15:50.938Z,99.90
2022-08-17T05:18:18.285Z,99.90
2022-08-17T05:20:45.820Z,99.90
2022-08-17T05:23:15.259Z,99.90
2022-08-17T05:25:45.655Z,99.90
2022-08-17T05:28:16.561Z,99.90
2022-08-17T05:30:44.232Z,99.90
2022-08-17T05:33:13.742Z,99.90
2022-08-17T05:35:47.397Z,99.90
2022-08-17T05:38:15.537Z,99.90
2022-08-17T05:40:43.218Z,99.90
2022-08-17T05:43:17.347Z,99.90
2022-08-17T05:45:55.229Z,99.90
2022-08-17T05:48:39.059Z,99.90
2022-08-17T05:51:14.096Z,99.90
2022-08-17T05:54:02.771Z,99.90
2022-08-17T05:56:54.779Z,99.90
2022-08-17T05:59:48.940Z,99.90
2022-08-17T06:02:47.476Z,99.90
2022-08-17T06:05:50.944Z,99.90
2022-08-17T06:08:34.700Z,99.90
2022-08-17T06:11:22.760Z,99.90
2022-08-17T06:14:12.782Z,99.90
2022-08-17T06:16:45.617Z,99.90
2022-08-17T06:19:19.251Z,99.90
2022-08-17T06:21:51.117Z,99.90
2022-08-17T06:24:45.175Z,99.90
2022-08-17T06:27:37.726Z,99.90
2022-08-17T06:30:12.926Z,99.90
2022-08-17T06:32:43.010Z,99.90
2022-08-17T06:35:13.888Z,99.90
2022-08-17T06:37:59.977Z,99.90
2022-08-17T06:40:46.518Z,99.90
2022-08-17T06:43:34.784Z,99.90
2022-08-17T06:46:05.023Z,99.90
2022-08-17T06:48:32.337Z,99.90
2022-08-17T06:51:04.045Z,99.90
2022-08-17T06:53:49.231Z,99.90
2022-08-17T06:56:55.015Z,99.90
2022-08-17T06:59:54.919Z,99.90
2022-08-17T07:02:53.033Z,99.90
2022-08-17T07:05:32.868Z,99.90
2022-08-17T07:08:25.318Z,99.90
2022-08-17T07:10:57.467Z,97.80
2022-08-17T07:13:57.391Z,97.00
2022-08-17T07:16:47.352Z,97.90
2022-08-17T07:19:17.058Z,96.90
2022-08-17T07:22:05.354Z,96.40
2022-08-17T07:24:47.574Z,96.30
2022-08-17T07:27:16.810Z,96.80
2022-08-17T07:30:09.533Z,97.10
2022-08-17T07:32:51.485Z,95.70
2022-08-17T07:35:20.009Z,94.70
2022-08-17T07:37:56.078Z,94.30
2022-08-17T07:40:32.604Z,93.90
2022-08-17T07:43:06.462Z,93.80
2022-08-17T07:45:52.744Z,93.00
2022-08-17T07:48:25.265Z,91.60
2022-08-17T07:50:55.468Z,91.80
2022-08-17T07:53:25.744Z,91.60
2022-08-17T07:55:53.878Z,89.00
2022-08-17T07:58:23.877Z,89.70
2022-08-17T08:01:11.821Z,87.50
2022-08-17T08:03:45.101Z,86.40
2022-08-17T08:06:23.672Z,84.20
2022-08-17T08:08:53.115Z,83.30
2022-08-17T08:11:40.140Z,82.70
2022-08-17T08:14:30.292Z,82.10
2022-08-17T08:17:06.906Z,81.70
2022-08-17T08:19:36.751Z,80.70
2022-08-17T08:22:13.850Z,79.50
2022-08-17T08:24:41.468Z,78.70
2022-08-17T08:27:30.641Z,79.40
2022-08-17T08:30:10.480Z,79.20
2022-08-17T08:32:59.620Z,75.70
2022-08-17T08:35:33.663Z,75.60
2022-08-17T08:38:31.745Z,74.10
2022-08-17T08:41:09.203Z,75.20
2022-08-17T08:43:52.206Z,72.90
2022-08-17T08:46:41.263Z,73.80
2022-08-17T08:49:59.115Z,73.30
2022-08-17T08:52:55.733Z,72.90
2022-08-17T08:55:35.091Z,71.50
2022-08-17T08:58:41.262Z,71.20
2022-08-17T09:01:52.117Z,70.30
2022-08-17T09:05:15.262Z,72.00
2022-08-17T09:08:13.193Z,69.80
2022-08-17T09:11:26.402Z,70.80
2022-08-17T09:14:00.579Z,69.50
2022-08-17T09:16:36.581Z,68.40
2022-08-17T09:19:15.264Z,67.70
2022-08-17T09:21:53.040Z,67.10
2022-08-17T09:24:20.969Z,66.60
2022-08-17T09:27:03.261Z,65.40
2022-08-17T09:29:35.543Z,65.70
2022-08-17T09:32:17.881Z,68.20
2022-08-17T09:35:01.791Z,65.90
2022-08-17T09:37:31.299Z,65.80
2022-08-17T09:40:02.689Z,64.60
2022-08-17T09:43:13.788Z,62.70
2022-08-17T09:45:53.501Z,62.40
2022-08-17T09:48:29.090Z,64.70
2022-08-17T09:51:24.611Z,65.10
2022-08-17T09:53:52.118Z,63.30
2022-08-17T09:57:28.066Z,63.10
2022-08-17T10:00:17.489Z,61.10
2022-08-17T10:03:03.642Z,61.20
2022-08-17T10:05:46.766Z,60.00
2022-08-17T10:08:23.732Z,60.90
2022-08-17T10:11:16.027Z,61.30
2022-08-17T10:13:52.994Z,60.00
2022-08-17T10:16:42.399Z,59.30
2022-08-17T10:19:38.142Z,59.30
2022-08-17T10:22:35.330Z,59.70
2022-08-17T10:25:26.170Z,58.60
2022-08-17T10:28:05.075Z,59.20
2022-08-17T10:30:33.891Z,58.90
2022-08-17T10:33:13.871Z,59.20
2022-08-17T10:35:57.106Z,59.10
2022-08-17T10:38:27.865Z,58.90
2022-08-17T10:41:28.006Z,58.10
2022-08-17T10:44:39.481Z,56.10
2022-08-17T10:47:18.431Z,56.70
2022-08-17T10:49:56.515Z,57.00
2022-08-17T10:52:24.937Z,57.80
2022-08-17T10:54:58.502Z,57.60
2022-08-17T10:57:32.093Z,56.60
2022-08-17T11:00:08.589Z,56.40
2022-08-17T11:02:53.342Z,56.30
2022-08-17T11:05:43.843Z,56.60
2022-08-17T11:08:26.479Z,56.80
2022-08-17T11:11:18.829Z,56.80
2022-08-17T11:14:09.049Z,55.20
2022-08-17T11:17:14.944Z,56.50
2022-08-17T11:19:51.704Z,55.00
2022-08-17T11:22:40.178Z,56.20
2022-08-17T11:25:15.190Z,55.90
2022-08-17T11:27:42.654Z,55.50
2022-08-17T11:30:15.241Z,54.50
2022-08-17T11:32:54.468Z,55.70
2022-08-17T11:35:22.480Z,53.60
2022-08-17T11:38:14.105Z,53.30
2022-08-17T11:41:01.892Z,52.90
2022-08-17T11:43:49.028Z,52.80
2022-08-17T11:47:08.691Z,53.80
2022-08-17T11:50:12.509Z,54.00
2022-08-17T11:52:46.015Z,53.10
2022-08-17T11:55:40.518Z,51.50
2022-08-17T11:58:31.795Z,50.80
2022-08-17T12:01:04.313Z,49.30
2022-08-17T12:03:33.625Z,48.10
2022-08-17T12:06:18.601Z,49.40
2022-08-17T12:08:57.379Z,47.80
2022-08-17T12:11:58.768Z,47.20
2022-08-17T12:17:40.118Z,49.30
2022-08-17T12:20:34.189Z,49.20
2022-08-17T12:23:16.278Z,49.00
2022-08-17T12:25:49.646Z,47.30
2022-08-17T12:28:26.826Z,45.90
2022-08-17T12:30:54.615Z,46.20
2022-08-17T12:33:25.273Z,46.00
2022-08-17T12:36:09.136Z,45.60
2022-08-17T12:38:37.664Z,46.40
2022-08-17T12:41:25.655Z,46.70
2022-08-17T12:44:04.256Z,44.60
2022-08-17T12:46:34.382Z,45.00
2022-08-17T12:49:13.820Z,43.70
2022-08-17T12:51:45.821Z,44.10
2022-08-17T12:54:46.248Z,43.80
2022-08-17T12:57:38.202Z,44.90
2022-08-17T13:00:18.484Z,45.10
2022-08-17T13:02:51.828Z,46.00
2022-08-17T13:05:30.937Z,45.20
2022-08-17T13:07:59.686Z,42.70
2022-08-17T13:10:32.559Z,42.90
2022-08-17T13:13:06.156Z,45.20
2022-08-17T13:15:51.678Z,45.70
2022-08-17T13:18:39.363Z,46.60
2022-08-17T13:21:27.858Z,47.70
2022-08-17T13:24:01.270Z,47.50
2022-08-17T13:26:36.828Z,48.00
2022-08-17T13:29:09.868Z,46.70
2022-08-17T13:31:52.909Z,46.60
2022-08-17T13:34:24.533Z,47.40
2022-08-17T13:37:16.096Z,48.20
2022-08-17T13:39:44.367Z,48.30
2022-08-17T13:42:32.061Z,48.20
2022-08-17T13:45:00.215Z,46.90
2022-08-17T13:47:27.781Z,47.00
2022-08-17T13:49:55.509Z,48.00
2022-08-17T13:52:41.776Z,46.80
2022-08-17T13:55:21.549Z,47.10
2022-08-17T13:58:03.555Z,46.90
2022-08-17T14:00:35.853Z,47.20
2022-08-17T14:03:04.185Z,46.80
2022-08-17T14:05:31.778Z,46.80
2022-08-17T14:08:06.886Z,47.20
2022-08-17T14:10:36.766Z,47.70
2022-08-17T14:13:04.799Z,47.50
2022-08-17T14:15:56.242Z,46.60
2022-08-17T14:18:53.497Z,46.50
2022-08-17T14:21:08.988Z,48.20
2022-08-17T14:23:36.986Z,48.50
2022-08-17T14:26:04.763Z,46.90
2022-08-17T14:28:32.223Z,47.50
2022-08-17T14:31:00.598Z,48.60
2022-08-17T14:33:29.599Z,49.60
2022-08-17T14:35:58.015Z,49.80
2022-08-17T14:38:25.429Z,48.70
2022-08-17T14:40:52.827Z,48.40
2022-08-17T14:43:21.266Z,47.60
2022-08-17T14:45:48.860Z,47.90
2022-08-17T14:48:16.207Z,47.60
2022-08-17T14:50:43.962Z,47.10
2022-08-17T14:53:16.680Z,47.40
2022-08-17T14:55:47.447Z,47.70
2022-08-17T14:58:16.172Z,47.40
2022-08-17T15:00:44.130Z,47.00
2022-08-17T15:03:12.351Z,47.60
2022-08-17T15:05:39.712Z,47.70
2022-08-17T15:08:07.417Z,48.00
2022-08-17T15:10:35.072Z,47.60
2022-08-17T15:13:02.558Z,47.60
2022-08-17T15:15:30.052Z,46.80
2022-08-17T15:17:58.008Z,46.70
2022-08-17T15:20:28.306Z,47.70
2022-08-17T15:22:56.349Z,47.90
2022-08-17T15:25:24.939Z,47.30
2022-08-17T15:27:52.701Z,47.60
2022-08-17T15:30:20.547Z,49.30
2022-08-17T15:32:51.441Z,48.00
2022-08-17T15:35:27.848Z,48.40
2022-08-17T15:37:58.001Z,49.10
2022-08-17T15:40:25.505Z,48.70
2022-08-17T15:42:53.250Z,50.60
2022-08-17T15:45:24.763Z,50.60
2022-08-17T15:47:53.833Z,51.90
2022-08-17T15:50:21.594Z,50.50
2022-08-17T15:52:57.202Z,50.80
2022-08-17T15:55:24.737Z,50.90
2022-08-17T15:57:52.419Z,50.30
2022-08-17T16:00:20.141Z,49.30
2022-08-17T16:03:14.193Z,50.50
2022-08-17T16:05:36.316Z,51.30
2022-08-17T16:08:04.767Z,52.60
2022-08-17T16:10:35.344Z,53.00
2022-08-17T16:13:03.620Z,53.70
2022-08-17T16:15:34.017Z,54.60
2022-08-17T16:18:01.425Z,55.00
2022-08-17T16:20:30.858Z,55.60
2022-08-17T16:22:58.384Z,56.50
2022-08-17T16:25:38.378Z,57.20
2022-08-17T16:28:16.308Z,56.90
2022-08-17T16:30:43.759Z,57.40
2022-08-17T16:33:12.184Z,55.90
2022-08-17T16:35:39.941Z,55.30
2022-08-17T16:38:07.513Z,54.50
2022-08-17T16:40:35.726Z,55.10
2022-08-17T16:43:07.457Z,56.70
2022-08-17T16:45:37.008Z,57.50
2022-08-17T16:48:04.892Z,59.20
2022-08-17T16:50:33.103Z,59.60
2022-08-17T16:53:11.520Z,60.70
2022-08-17T16:55:39.114Z,60.90
2022-08-17T16:58:06.538Z,61.70
2022-08-17T17:00:34.478Z,63.50
2022-08-17T17:03:22.714Z,62.00
2022-08-17T17:06:03.515Z,62.70
2022-08-17T17:08:44.695Z,62.80
2022-08-17T17:11:42.217Z,64.20
2022-08-17T17:14:23.028Z,69.90
2022-08-17T17:17:14.733Z,65.70
2022-08-17T17:19:57.111Z,64.20
2022-08-17T17:22:33.490Z,67.90
2022-08-17T17:25:07.760Z,70.80
2022-08-17T17:27:53.384Z,73.50
2022-08-17T17:30:33.428Z,78.20
2022-08-17T17:33:06.264Z,83.20
2022-08-17T17:35:39.292Z,83.50
2022-08-17T17:38:12.792Z,86.20
2022-08-17T17:40:43.299Z,90.80
2022-08-17T17:43:37.177Z,90.30
2022-08-17T17:46:28.529Z,91.70
2022-08-17T17:48:57.816Z,93.00
2022-08-17T17:52:07.158Z,94.00
2022-08-17T17:55:03.073Z,94.50
2022-08-17T17:57:33.866Z,96.00
2022-08-17T18:00:15.812Z,97.20
2022-08-17T18:02:52.992Z,97.30
2022-08-17T18:05:23.443Z,97.90
2022-08-17T18:08:10.985Z,98.00
2022-08-17T18:10:43.314Z,98.30
2022-08-17T18:13:22.370Z,98.70
2022-08-17T18:15:54.771Z,99.40
2022-08-17T18:18:38.272Z,99.90
2022-08-17T18:21:17.055Z,99.90
2022-08-17T18:23:49.052Z,99.90
2022-08-17T18:26:46.660Z,99.90
2022-08-17T18:29:32.722Z,99.90
2022-08-17T18:32:26.393Z,99.90
2022-08-17T18:35:02.339Z,99.90
2022-08-17T18:37:36.154Z,99.90
2022-08-17T18:40:21.693Z,99.90
2022-08-17T18:43:04.817Z,99.90
2022-08-17T18:45:36.428Z,99.90
2022-08-17T18:48:04.130Z,99.90
2022-08-17T18:50:41.588Z,99.90
2022-08-17T18:53:39.648Z,99.90
2022-08-17T18:56:31.414Z,99.90
2022-08-17T18:59:02.911Z,99.90
2022-08-17T19:01:52.065Z,99.90
2022-08-17T19:04:36.973Z,99.90
2022-08-17T19:07:10.660Z,99.90
2022-08-17T19:09:44.710Z,99.90
2022-08-17T19:12:27.389Z,99.90
2022-08-17T19:14:55.872Z,99.90
2022-08-17T19:17:33.679Z,99.90
2022-08-17T19:20:06.365Z,99.90
2022-08-17T19:22:48.241Z,99.90
2022-08-17T19:25:21.843Z,99.90
2022-08-17T19:28:21.464Z,99.90
2022-08-17T19:30:51.854Z,99.90
2022-08-17T19:33:19.894Z,99.90
2022-08-17T19:35:58.687Z,99.90
2022-08-17T19:38:38.530Z,99.90
2022-08-17T19:41:11.947Z,99.90
2022-08-17T19:43:48.424Z,99.90
2022-08-17T19:46:19.949Z,99.90
2022-08-17T19:48:59.299Z,99.90
2022-08-17T19:51:52.420Z,99.90
2022-08-17T19:54:24.053Z,99.90
2022-08-17T19:56:56.866Z,99.90
2022-08-17T19:59:35.646Z,99.90
2022-08-17T20:02:33.998Z,99.90
2022-08-17T20:05:24.789Z,99.90
2022-08-17T20:08:01.055Z,99.90
2022-08-17T20:10:37.069Z,99.90
2022-08-17T20:13:08.772Z,99.90
2022-08-17T20:15:38.798Z,99.90
2022-08-17T20:18:09.869Z,99.90
2022-08-17T20:20:55.958Z,99.90
2022-08-17T20:23:46.642Z,99.90
2022-08-17T20:26:55.593Z,99.90
2022-08-17T20:29:55.885Z,99.90
2022-08-17T20:32:25.541Z,99.90
2022-08-17T20:35:30.746Z,99.90
2022-08-17T20:38:11.102Z,99.90
2022-08-17T20:40:54.709Z,99.90
2022-08-17T20:43:37.307Z,99.90
2022-08-17T20:46:22.600Z,99.90
2022-08-17T20:48:52.609Z,99.90
2022-08-17T20:51:35.167Z,99.90
2022-08-17T20:54:08.787Z,99.90
2022-08-17T20:56:45.280Z,99.90
2022-08-17T20:59:26.055Z,99.90
2022-08-17T21:02:19.423Z,99.90
2022-08-17T21:04:56.788Z,99.90
2022-08-17T21:07:42.830Z,99.90
2022-08-17T21:10:17.795Z,99.90
2022-08-17T21:12:49.299Z,99.90
2022-08-17T21:15:28.860Z,99.90
2022-08-17T21:18:18.863Z,99.90
2022-08-17T21:20:59.411Z,99.90
2022-08-17T21:23:45.232Z,99.90
2022-08-17T21:26:26.715Z,99.90
2022-08-17T21:29:31.192Z,99.90
2022-08-17T21:32:00.867Z,99.90
2022-08-17T21:34:37.180Z,99.90
2022-08-17T21:37:25.522Z,99.90
2022-08-17T21:39:56.382Z,99.90
2022-08-17T21:42:32.473Z,99.90
2022-08-17T21:45:27.737Z,99.90
2022-08-17T21:48:08.699Z,99.90
2022-08-17T21:50:36.389Z,99.90
2022-08-17T21:53:03.938Z,99.90
2022-08-17T21:55:32.544Z,99.90
2022-08-17T21:58:35.425Z,99.90
2022-08-17T22:01:25.670Z,99.90
2022-08-17T22:04:11.876Z,99.90
2022-08-17T22:06:41.445Z,99.90
2022-08-17T22:09:15.298Z,99.90
2022-08-17T22:12:05.902Z,99.90
2022-08-17T22:14:53.164Z,99.90
2022-08-17T22:17:31.730Z,99.90
2022-08-17T22:20:14.624Z,99.90
2022-08-17T22:23:13.056Z,99.90
2022-08-17T22:25:42.034Z,99.90
2022-08-17T22:28:11.370Z,99.90
2022-08-17T22:30:40.856Z,99.90
2022-08-17T22:33:33.595Z,99.90
2022-08-17T22:36:42.754Z,99.90
2022-08-17T22:39:10.242Z,99.90
2022-08-17T22:41:57.571Z,99.90
2022-08-17T22:44:28.766Z,99.90
2022-08-17T22:47:11.274Z,99.90
2022-08-17T22:50:01.748Z,99.90
2022-08-17T22:53:03.592Z,99.90
2022-08-17T22:55:49.429Z,99.90
2022-08-17T22:58:37.931Z,99.90
2022-08-17T23:01:26.313Z,99.90
2022-08-17T23:03:58.995Z,99.90
2022-08-17T23:06:26.392Z,99.90
2022-08-17T23:08:58.259Z,99.90
2022-08-17T23:11:36.774Z,99.90
2022-08-17T23:14:16.136Z,99.90
2022-08-17T23:16:44.157Z,99.90
2022-08-17T23:19:12.549Z,99.90
2022-08-17T23:21:40.053Z,99.90
2022-08-17T23:24:09.063Z,99.90
2022-08-17T23:26:39.485Z,99.90
2022-08-17T23:29:07.131Z,99.90
2022-08-17T23:31:35.244Z,99.90
2022-08-17T23:34:03.920Z,99.90
2022-08-17T23:36:32.798Z,99.90
2022-08-17T23:39:00.660Z,99.90
2022-08-17T23:41:29.905Z,99.90
2022-08-17T23:43:57.478Z,99.90
2022-08-17T23:46:25.452Z,99.90
2022-08-17T23:48:54.516Z,99.90
2022-08-17T23:51:30.073Z,99.90
2022-08-17T23:54:05.798Z,99.90
2022-08-17T23:56:38.604Z,99.90
2022-08-17T23:59:05.850Z,99.90
